sensor_id;sensor_type;location;lat;lon;timestamp;pressure;altitude;pressure_sealevel;temperature;humidity
19596;BME280;9945;46.010;8.946;2023-03-04T00:02:22;97410.84;;;10.47;61.65
19596;BME280;9945;46.010;8.946;2023-03-04T00:04:49;97417.03;;;10.46;61.31
19596;BME280;9945;46.010;8.946;2023-03-04T00:07:15;97411.16;;;10.44;61.71
19596;BME280;9945;46.010;8.946;2023-03-04T00:09:43;97412.69;;;10.37;61.54
19596;BME280;9945;46.010;8.946;2023-03-04T00:12:11;97410.06;;;10.37;61.44
19596;BME280;9945;46.010;8.946;2023-03-04T00:14:38;97408.31;;;10.28;61.73
19596;BME280;9945;46.010;8.946;2023-03-04T00:17:05;97417.25;;;10.26;62.51
19596;BME280;9945;46.010;8.946;2023-03-04T00:19:33;97409.53;;;10.24;61.72
19596;BME280;9945;46.010;8.946;2023-03-04T00:22:00;97417.66;;;10.21;62.78
19596;BME280;9945;46.010;8.946;2023-03-04T00:24:28;97415.44;;;10.16;62.54
19596;BME280;9945;46.010;8.946;2023-03-04T00:26:55;97415.72;;;10.13;62.19
19596;BME280;9945;46.010;8.946;2023-03-04T00:29:22;97415.88;;;10.12;63.18
19596;BME280;9945;46.010;8.946;2023-03-04T00:31:49;97418.50;;;10.12;62.35
19596;BME280;9945;46.010;8.946;2023-03-04T00:34:15;97422.59;;;10.14;63.49
19596;BME280;9945;46.010;8.946;2023-03-04T00:36:43;97424.53;;;10.12;62.32
19596;BME280;9945;46.010;8.946;2023-03-04T00:39:11;97413.09;;;10.04;64.14
19596;BME280;9945;46.010;8.946;2023-03-04T00:41:38;97418.19;;;10.05;63.71
19596;BME280;9945;46.010;8.946;2023-03-04T00:44:05;97420.94;;;10.04;63.65
19596;BME280;9945;46.010;8.946;2023-03-04T00:46:32;97416.53;;;10.04;64.45
19596;BME280;9945;46.010;8.946;2023-03-04T00:48:59;97421.78;;;10.04;64.62
19596;BME280;9945;46.010;8.946;2023-03-04T00:51:26;97421.94;;;10.03;63.94
19596;BME280;9945;46.010;8.946;2023-03-04T00:53:54;97422.22;;;10.00;64.97
19596;BME280;9945;46.010;8.946;2023-03-04T00:56:21;97425.09;;;9.97;63.54
19596;BME280;9945;46.010;8.946;2023-03-04T00:58:48;97422.06;;;9.92;64.09
19596;BME280;9945;46.010;8.946;2023-03-04T01:01:14;97422.06;;;9.92;64.06
19596;BME280;9945;46.010;8.946;2023-03-04T01:03:41;97419.84;;;9.97;64.01
19596;BME280;9945;46.010;8.946;2023-03-04T01:06:08;97417.25;;;9.97;64.57
19596;BME280;9945;46.010;8.946;2023-03-04T01:08:35;97419.03;;;9.96;64.45
19596;BME280;9945;46.010;8.946;2023-03-04T01:11:04;97416.84;;;9.92;63.68
19596;BME280;9945;46.010;8.946;2023-03-04T01:13:31;97417.94;;;9.89;64.73
19596;BME280;9945;46.010;8.946;2023-03-04T01:15:58;97415.63;;;9.86;63.86
19596;BME280;9945;46.010;8.946;2023-03-04T01:18:26;97415.31;;;9.79;65.37
19596;BME280;9945;46.010;8.946;2023-03-04T01:20:53;97415.31;;;9.79;65.15
19596;BME280;9945;46.010;8.946;2023-03-04T01:23:20;97410.09;;;9.79;65.33
19596;BME280;9945;46.010;8.946;2023-03-04T01:25:47;97406.94;;;9.76;64.39
19596;BME280;9945;46.010;8.946;2023-03-04T01:28:15;97403.38;;;9.77;66.00
19596;BME280;9945;46.010;8.946;2023-03-04T01:30:42;97406.81;;;9.77;64.84
19596;BME280;9945;46.010;8.946;2023-03-04T01:33:09;97401.16;;;9.72;66.13
19596;BME280;9945;46.010;8.946;2023-03-04T01:35:36;97404.72;;;9.71;65.40
19596;BME280;9945;46.010;8.946;2023-03-04T01:38:02;97409.56;;;9.66;65.38
19596;BME280;9945;46.010;8.946;2023-03-04T01:40:29;97400.06;;;9.65;65.33
19596;BME280;9945;46.010;8.946;2023-03-04T01:42:56;97394.84;;;9.65;64.54
19596;BME280;9945;46.010;8.946;2023-03-04T01:45:25;97400.06;;;9.65;65.03
19596;BME280;9945;46.010;8.946;2023-03-04T01:47:52;97394.13;;;9.63;65.06
19596;BME280;9945;46.010;8.946;2023-03-04T01:50:25;97392.78;;;9.59;66.42
19596;BME280;9945;46.010;8.946;2023-03-04T01:52:52;97397.19;;;9.59;65.64
19596;BME280;9945;46.010;8.946;2023-03-04T01:55:21;97387.56;;;9.69;66.45
19596;BME280;9945;46.010;8.946;2023-03-04T01:57:50;97389.19;;;9.70;66.43
19596;BME280;9945;46.010;8.946;2023-03-04T02:00:21;97383.16;;;9.69;65.83
19596;BME280;9945;46.010;8.946;2023-03-04T02:02:52;97384.13;;;9.68;64.44
19596;BME280;9945;46.010;8.946;2023-03-04T02:05:20;97375.31;;;9.69;64.50
19596;BME280;9945;46.010;8.946;2023-03-04T02:07:47;97383.41;;;9.66;64.85
19596;BME280;9945;46.010;8.946;2023-03-04T02:10:15;97374.88;;;9.64;64.43
19596;BME280;9945;46.010;8.946;2023-03-04T02:12:42;97378.06;;;9.58;65.52
19596;BME280;9945;46.010;8.946;2023-03-04T02:15:10;97369.66;;;9.55;65.45
19596;BME280;9945;46.010;8.946;2023-03-04T02:17:37;97372.97;;;9.57;65.59
19596;BME280;9945;46.010;8.946;2023-03-04T02:20:12;97365.94;;;9.57;64.56
19596;BME280;9945;46.010;8.946;2023-03-04T02:22:45;97363.34;;;9.57;65.71
19596;BME280;9945;46.010;8.946;2023-03-04T02:25:17;97360.97;;;9.54;64.73
19596;BME280;9945;46.010;8.946;2023-03-04T02:27:49;97356.06;;;9.51;65.23
19596;BME280;9945;46.010;8.946;2023-03-04T02:30:18;97353.56;;;9.49;66.39
19596;BME280;9945;46.010;8.946;2023-03-04T02:32:46;97351.91;;;9.48;65.02
19596;BME280;9945;46.010;8.946;2023-03-04T02:35:15;97357.41;;;9.45;64.54
19596;BME280;9945;46.010;8.946;2023-03-04T02:37:43;97356.88;;;9.42;65.70
19596;BME280;9945;46.010;8.946;2023-03-04T02:40:13;97350.25;;;9.38;66.58
19596;BME280;9945;46.010;8.946;2023-03-04T02:42:43;97350.97;;;9.40;66.13
19596;BME280;9945;46.010;8.946;2023-03-04T02:45:36;97355.75;;;9.44;65.37
19596;BME280;9945;46.010;8.946;2023-03-04T02:48:03;97350.81;;;9.41;65.88
19596;BME280;9945;46.010;8.946;2023-03-04T02:50:34;97354.66;;;9.37;66.38
19596;BME280;9945;46.010;8.946;2023-03-04T02:53:01;97349.44;;;9.37;65.98
19596;BME280;9945;46.010;8.946;2023-03-04T02:55:28;97349.16;;;9.40;64.55
19596;BME280;9945;46.010;8.946;2023-03-04T02:57:56;97345.03;;;9.38;65.11
19596;BME280;9945;46.010;8.946;2023-03-04T03:00:24;97344.63;;;9.33;65.17
19596;BME280;9945;46.010;8.946;2023-03-04T03:02:52;97348.47;;;9.29;66.97
19596;BME280;9945;46.010;8.946;2023-03-04T03:05:22;97345.56;;;9.22;66.04
19596;BME280;9945;46.010;8.946;2023-03-04T03:07:49;97339.66;;;9.20;67.49
19596;BME280;9945;46.010;8.946;2023-03-04T03:10:16;97343.66;;;9.24;66.08
19596;BME280;9945;46.010;8.946;2023-03-04T03:12:44;97336.22;;;9.20;66.14
19596;BME280;9945;46.010;8.946;2023-03-04T03:15:11;97333.78;;;9.18;66.70
19596;BME280;9945;46.010;8.946;2023-03-04T03:17:38;97340.34;;;9.13;68.27
19596;BME280;9945;46.010;8.946;2023-03-04T03:20:08;97335.69;;;9.16;67.00
19596;BME280;9945;46.010;8.946;2023-03-04T03:22:35;97334.16;;;9.14;67.01
19596;BME280;9945;46.010;8.946;2023-03-04T03:25:03;97336.63;;;9.15;68.03
19596;BME280;9945;46.010;8.946;2023-03-04T03:27:30;97338.69;;;9.21;68.34
19596;BME280;9945;46.010;8.946;2023-03-04T03:29:57;97338.44;;;9.15;66.78
19596;BME280;9945;46.010;8.946;2023-03-04T03:32:24;97338.44;;;9.15;68.00
19596;BME280;9945;46.010;8.946;2023-03-04T03:34:51;97333.47;;;9.11;67.27
19596;BME280;9945;46.010;8.946;2023-03-04T03:37:19;97330.03;;;9.11;66.75
19596;BME280;9945;46.010;8.946;2023-03-04T03:39:46;97336.78;;;9.14;67.61
19596;BME280;9945;46.010;8.946;2023-03-04T03:42:13;97330.72;;;9.13;66.81
19596;BME280;9945;46.010;8.946;2023-03-04T03:44:40;97321.91;;;9.04;66.04
19596;BME280;9945;46.010;8.946;2023-03-04T03:47:07;97325.34;;;9.05;66.55
19596;BME280;9945;46.010;8.946;2023-03-04T03:49:33;97325.47;;;8.94;66.55
19596;BME280;9945;46.010;8.946;2023-03-04T03:52:00;97316.13;;;8.91;66.91
19596;BME280;9945;46.010;8.946;2023-03-04T03:54:29;97318.44;;;8.85;68.66
19596;BME280;9945;46.010;8.946;2023-03-04T03:56:55;97321.88;;;8.76;69.92
19596;BME280;9945;46.010;8.946;2023-03-04T03:59:22;97318.16;;;8.78;69.95
19596;BME280;9945;46.010;8.946;2023-03-04T04:01:49;97318.72;;;8.82;68.63
19596;BME280;9945;46.010;8.946;2023-03-04T04:04:16;97316.94;;;8.82;68.91
19596;BME280;9945;46.010;8.946;2023-03-04T04:06:43;97320.91;;;8.86;68.11
19596;BME280;9945;46.010;8.946;2023-03-04T04:09:10;97320.66;;;8.89;68.49
19596;BME280;9945;46.010;8.946;2023-03-04T04:11:38;97316.25;;;8.90;68.25
19596;BME280;9945;46.010;8.946;2023-03-04T04:14:05;97315.19;;;8.92;66.79
19596;BME280;9945;46.010;8.946;2023-03-04T04:16:32;97324.94;;;8.90;66.66
19596;BME280;9945;46.010;8.946;2023-03-04T04:18:59;97320.78;;;8.88;68.05
19596;BME280;9945;46.010;8.946;2023-03-04T04:21:25;97319.84;;;8.89;68.60
19596;BME280;9945;46.010;8.946;2023-03-04T04:23:52;97320.78;;;8.88;68.26
19596;BME280;9945;46.010;8.946;2023-03-04T04:26:19;97318.59;;;8.83;66.55
19596;BME280;9945;46.010;8.946;2023-03-04T04:28:47;97317.91;;;8.81;68.29
19596;BME280;9945;46.010;8.946;2023-03-04T04:31:14;97312.09;;;8.78;68.77
19596;BME280;9945;46.010;8.946;2023-03-04T04:33:41;97308.81;;;8.76;66.63
19596;BME280;9945;46.010;8.946;2023-03-04T04:36:12;97319.28;;;8.76;67.63
19596;BME280;9945;46.010;8.946;2023-03-04T04:38:39;97315.84;;;8.75;66.69
19596;BME280;9945;46.010;8.946;2023-03-04T04:41:16;97311.44;;;8.76;67.40
19596;BME280;9945;46.010;8.946;2023-03-04T04:43:44;97316.22;;;8.70;67.07
19596;BME280;9945;46.010;8.946;2023-03-04T04:46:12;97317.31;;;8.68;67.32
19596;BME280;9945;46.010;8.946;2023-03-04T04:48:39;97317.03;;;8.71;66.70
19596;BME280;9945;46.010;8.946;2023-03-04T04:51:06;97312.78;;;8.70;66.65
19596;BME280;9945;46.010;8.946;2023-03-04T04:53:33;97314.97;;;8.65;67.03
19596;BME280;9945;46.010;8.946;2023-03-04T04:56:08;97318.28;;;8.67;66.86
19596;BME280;9945;46.010;8.946;2023-03-04T04:58:35;97318.41;;;8.65;68.51
19596;BME280;9945;46.010;8.946;2023-03-04T05:01:02;97308.94;;;8.64;67.00
19596;BME280;9945;46.010;8.946;2023-03-04T05:03:30;97316.88;;;8.63;69.25
19596;BME280;9945;46.010;8.946;2023-03-04T05:05:57;97311.94;;;8.60;69.38
19596;BME280;9945;46.010;8.946;2023-03-04T05:08:24;97312.09;;;8.58;69.06
19596;BME280;9945;46.010;8.946;2023-03-04T05:10:51;97310.31;;;8.59;69.22
19596;BME280;9945;46.010;8.946;2023-03-04T05:13:18;97307.00;;;8.57;68.18
19596;BME280;9945;46.010;8.946;2023-03-04T05:15:45;97309.03;;;8.53;68.40
19596;BME280;9945;46.010;8.946;2023-03-04T05:18:12;97309.72;;;8.55;68.17
19596;BME280;9945;46.010;8.946;2023-03-04T05:20:40;97305.06;;;8.49;70.25
19596;BME280;9945;46.010;8.946;2023-03-04T05:23:07;97297.22;;;8.49;69.99
19596;BME280;9945;46.010;8.946;2023-03-04T05:25:34;97307.91;;;8.46;68.42
19596;BME280;9945;46.010;8.946;2023-03-04T05:28:01;97302.28;;;8.51;69.40
19596;BME280;9945;46.010;8.946;2023-03-04T05:30:29;97307.91;;;8.46;70.04
19596;BME280;9945;46.010;8.946;2023-03-04T05:32:56;97307.75;;;8.38;69.86
19596;BME280;9945;46.010;8.946;2023-03-04T05:35:23;97304.44;;;8.36;69.39
19596;BME280;9945;46.010;8.946;2023-03-04T05:37:51;97313.50;;;8.32;71.21
19596;BME280;9945;46.010;8.946;2023-03-04T05:40:18;97309.53;;;8.38;70.50
19596;BME280;9945;46.010;8.946;2023-03-04T05:42:45;97316.16;;;8.42;70.52
19596;BME280;9945;46.010;8.946;2023-03-04T05:45:13;97306.25;;;8.45;69.43
19596;BME280;9945;46.010;8.946;2023-03-04T05:47:40;97306.84;;;8.49;68.73
19596;BME280;9945;46.010;8.946;2023-03-04T05:50:08;97308.31;;;8.42;70.00
19596;BME280;9945;46.010;8.946;2023-03-04T05:52:35;97307.50;;;8.41;70.18
19596;BME280;9945;46.010;8.946;2023-03-04T05:55:04;97302.44;;;8.49;69.19
19596;BME280;9945;46.010;8.946;2023-03-04T05:57:31;97306.97;;;8.47;69.75
19596;BME280;9945;46.010;8.946;2023-03-04T05:59:58;97314.13;;;8.24;70.04
19596;BME280;9945;46.010;8.946;2023-03-04T06:02:25;97314.63;;;8.39;70.48
19596;BME280;9945;46.010;8.946;2023-03-04T06:04:52;97317.09;;;8.41;68.85
19596;BME280;9945;46.010;8.946;2023-03-04T06:07:18;97325.34;;;8.46;69.90
19596;BME280;9945;46.010;8.946;2023-03-04T06:09:45;97321.22;;;8.43;68.53
19596;BME280;9945;46.010;8.946;2023-03-04T06:12:13;97317.78;;;8.43;69.21
19596;BME280;9945;46.010;8.946;2023-03-04T06:14:40;97323.97;;;8.42;68.38
19596;BME280;9945;46.010;8.946;2023-03-04T06:17:07;97329.44;;;8.39;70.14
19596;BME280;9945;46.010;8.946;2023-03-04T06:19:34;97327.78;;;8.38;69.60
19596;BME280;9945;46.010;8.946;2023-03-04T06:22:02;97327.84;;;8.26;70.83
19596;BME280;9945;46.010;8.946;2023-03-04T06:24:29;97324.03;;;8.30;70.75
19596;BME280;9945;46.010;8.946;2023-03-04T06:26:56;97329.81;;;8.34;68.94
19596;BME280;9945;46.010;8.946;2023-03-04T06:29:24;97331.84;;;8.30;69.64
19596;BME280;9945;46.010;8.946;2023-03-04T06:31:51;97328.88;;;8.35;70.24
19596;BME280;9945;46.010;8.946;2023-03-04T06:34:18;97333.72;;;8.40;69.39
19596;BME280;9945;46.010;8.946;2023-03-04T06:36:45;97333.44;;;8.43;70.33
19596;BME280;9945;46.010;8.946;2023-03-04T06:39:12;97332.63;;;8.52;70.69
19596;BME280;9945;46.010;8.946;2023-03-04T06:41:39;97336.81;;;8.64;69.16
19596;BME280;9945;46.010;8.946;2023-03-04T06:44:07;97335.75;;;8.76;68.21
19596;BME280;9945;46.010;8.946;2023-03-04T06:46:35;97341.81;;;8.86;69.20
19596;BME280;9945;46.010;8.946;2023-03-04T06:49:02;97337.59;;;9.04;68.32
19596;BME280;9945;46.010;8.946;2023-03-04T06:51:29;97345.56;;;9.22;68.18
19596;BME280;9945;46.010;8.946;2023-03-04T06:53:56;97351.91;;;9.29;68.44
19596;BME280;9945;46.010;8.946;2023-03-04T06:56:23;97342.41;;;9.28;66.03
19596;BME280;9945;46.010;8.946;2023-03-04T06:58:49;97350.00;;;9.41;66.42
19596;BME280;9945;46.010;8.946;2023-03-04T07:01:19;97348.88;;;9.63;65.83
19596;BME280;9945;46.010;8.946;2023-03-04T07:03:48;97353.69;;;9.77;66.26
19596;BME280;9945;46.010;8.946;2023-03-04T07:06:17;97349.00;;;9.80;65.86
19596;BME280;9945;46.010;8.946;2023-03-04T07:08:44;97359.88;;;9.95;65.85
19596;BME280;9945;46.010;8.946;2023-03-04T07:11:12;97354.59;;;10.24;63.69
19596;BME280;9945;46.010;8.946;2023-03-04T07:13:39;97354.00;;;10.30;63.57
19596;BME280;9945;46.010;8.946;2023-03-04T07:16:06;97350.72;;;10.38;63.04
19596;BME280;9945;46.010;8.946;2023-03-04T07:18:33;97354.22;;;10.46;62.57
19596;BME280;9945;46.010;8.946;2023-03-04T07:21:02;97356.34;;;10.70;61.69
19596;BME280;9945;46.010;8.946;2023-03-04T07:23:29;97353.78;;;10.88;60.52
19596;BME280;9945;46.010;8.946;2023-03-04T07:25:56;97360.91;;;10.95;60.29
19596;BME280;9945;46.010;8.946;2023-03-04T07:28:23;97354.47;;;11.08;59.08
19596;BME280;9945;46.010;8.946;2023-03-04T07:30:50;97361.59;;;11.15;59.46
19596;BME280;9945;46.010;8.946;2023-03-04T07:33:16;97362.06;;;11.28;60.15
19596;BME280;9945;46.010;8.946;2023-03-04T07:35:43;97361.78;;;11.49;57.83
19596;BME280;9945;46.010;8.946;2023-03-04T07:38:12;97356.22;;;11.52;57.83
19596;BME280;9945;46.010;8.946;2023-03-04T07:40:38;97356.91;;;11.54;58.06
19596;BME280;9945;46.010;8.946;2023-03-04T07:43:05;97365.84;;;11.79;56.86
19596;BME280;9945;46.010;8.946;2023-03-04T07:45:32;97355.25;;;12.06;55.14
19596;BME280;9945;46.010;8.946;2023-03-04T07:47:59;97358.22;;;12.11;53.77
19596;BME280;9945;46.010;8.946;2023-03-04T07:50:26;97358.88;;;12.13;54.60
19596;BME280;9945;46.010;8.946;2023-03-04T07:52:53;97361.72;;;12.20;53.59
19596;BME280;9945;46.010;8.946;2023-03-04T07:55:21;97357.97;;;12.23;55.13
19596;BME280;9945;46.010;8.946;2023-03-04T07:57:48;97354.91;;;12.35;54.33
19596;BME280;9945;46.010;8.946;2023-03-04T08:00:16;97347.03;;;12.69;53.88
19596;BME280;9945;46.010;8.946;2023-03-04T08:02:43;97349.72;;;12.85;52.93
19596;BME280;9945;46.010;8.946;2023-03-04T08:05:09;97354.06;;;13.03;52.64
19596;BME280;9945;46.010;8.946;2023-03-04T08:07:36;97355.84;;;13.02;51.44
19596;BME280;9945;46.010;8.946;2023-03-04T08:10:04;97352.59;;;13.00;51.78
19596;BME280;9945;46.010;8.946;2023-03-04T08:12:34;97348.88;;;13.27;51.30
19596;BME280;9945;46.010;8.946;2023-03-04T08:15:02;97353.53;;;13.41;50.97
19596;BME280;9945;46.010;8.946;2023-03-04T08:17:29;97351.41;;;13.53;48.70
19596;BME280;9945;46.010;8.946;2023-03-04T08:19:56;97346.31;;;13.92;47.89
19596;BME280;9945;46.010;8.946;2023-03-04T08:22:23;97340.41;;;13.90;47.79
19596;BME280;9945;46.010;8.946;2023-03-04T08:24:49;97336.44;;;14.10;48.26
19596;BME280;9945;46.010;8.946;2023-03-04T08:27:16;97329.63;;;14.32;47.44
19596;BME280;9945;46.010;8.946;2023-03-04T08:29:45;97329.16;;;14.28;47.25
19596;BME280;9945;46.010;8.946;2023-03-04T08:32:11;97340.50;;;14.53;46.07
19596;BME280;9945;46.010;8.946;2023-03-04T08:34:39;97329.75;;;14.55;47.33
19596;BME280;9945;46.010;8.946;2023-03-04T08:37:06;97329.44;;;14.58;46.74
19596;BME280;9945;46.010;8.946;2023-03-04T08:39:33;97324.81;;;14.60;47.25
19596;BME280;9945;46.010;8.946;2023-03-04T08:42:01;97321.31;;;14.67;46.87
19596;BME280;9945;46.010;8.946;2023-03-04T08:44:28;97315.69;;;14.79;45.04
19596;BME280;9945;46.010;8.946;2023-03-04T08:46:56;97326.31;;;14.93;44.78
19596;BME280;9945;46.010;8.946;2023-03-04T08:49:23;97319.47;;;15.38;46.28
19596;BME280;9945;46.010;8.946;2023-03-04T08:51:50;97321.47;;;15.36;46.40
19596;BME280;9945;46.010;8.946;2023-03-04T08:54:16;97322.91;;;15.69;45.85
19596;BME280;9945;46.010;8.946;2023-03-04T08:56:43;97319.88;;;16.10;44.92
19596;BME280;9945;46.010;8.946;2023-03-04T08:59:10;97316.72;;;16.44;43.55
19596;BME280;9945;46.010;8.946;2023-03-04T09:01:37;97317.22;;;16.33;42.59
19596;BME280;9945;46.010;8.946;2023-03-04T09:04:06;97313.31;;;16.73;42.94
19596;BME280;9945;46.010;8.946;2023-03-04T09:06:33;97309.84;;;16.72;43.28
19596;BME280;9945;46.010;8.946;2023-03-04T09:09:00;97304.06;;;16.98;44.04
19596;BME280;9945;46.010;8.946;2023-03-04T09:11:27;97308.06;;;17.30;42.16
19596;BME280;9945;46.010;8.946;2023-03-04T09:13:54;97299.69;;;16.90;42.29
19596;BME280;9945;46.010;8.946;2023-03-04T09:16:20;97300.06;;;17.23;41.34
19596;BME280;9945;46.010;8.946;2023-03-04T09:18:47;97296.50;;;17.52;41.84
19596;BME280;9945;46.010;8.946;2023-03-04T09:21:16;97289.97;;;17.97;40.61
19596;BME280;9945;46.010;8.946;2023-03-04T09:23:43;97292.09;;;18.08;40.06
19596;BME280;9945;46.010;8.946;2023-03-04T09:26:15;97277.19;;;18.07;39.18
19596;BME280;9945;46.010;8.946;2023-03-04T09:28:42;97291.41;;;18.28;40.01
19596;BME280;9945;46.010;8.946;2023-03-04T09:31:12;97282.97;;;18.86;38.67
19596;BME280;9945;46.010;8.946;2023-03-04T09:33:40;97281.88;;;18.74;38.28
19596;BME280;9945;46.010;8.946;2023-03-04T09:36:08;97282.06;;;18.04;39.47
19596;BME280;9945;46.010;8.946;2023-03-04T09:38:38;97278.78;;;19.12;37.52
19596;BME280;9945;46.010;8.946;2023-03-04T09:41:08;97282.78;;;18.95;38.32
19596;BME280;9945;46.010;8.946;2023-03-04T09:43:37;97272.72;;;19.44;37.02
19596;BME280;9945;46.010;8.946;2023-03-04T09:46:08;97266.78;;;20.34;35.13
19596;BME280;9945;46.010;8.946;2023-03-04T09:48:40;97273.81;;;21.31;33.76
19596;BME280;9945;46.010;8.946;2023-03-04T09:51:19;97264.72;;;22.02;32.23
19596;BME280;9945;46.010;8.946;2023-03-04T09:53:58;97262.59;;;22.65;30.83
19596;BME280;9945;46.010;8.946;2023-03-04T09:56:32;97265.59;;;23.23;29.75
19596;BME280;9945;46.010;8.946;2023-03-04T09:59:07;97262.44;;;23.45;29.30
19596;BME280;9945;46.010;8.946;2023-03-04T10:01:39;97262.78;;;23.90;29.47
19596;BME280;9945;46.010;8.946;2023-03-04T10:04:12;97259.44;;;25.04;27.65
19596;BME280;9945;46.010;8.946;2023-03-04T10:06:41;97258.19;;;25.23;26.98
19596;BME280;9945;46.010;8.946;2023-03-04T10:09:12;97255.78;;;26.56;25.98
19596;BME280;9945;46.010;8.946;2023-03-04T10:11:44;97263.25;;;27.63;24.40
19596;BME280;9945;46.010;8.946;2023-03-04T10:14:26;97264.53;;;28.61;23.50
19596;BME280;9945;46.010;8.946;2023-03-04T10:16:59;97252.94;;;29.23;22.47
19596;BME280;9945;46.010;8.946;2023-03-04T10:19:41;97257.09;;;29.81;21.83
19596;BME280;9945;46.010;8.946;2023-03-04T10:22:17;97256.94;;;29.00;21.95
19596;BME280;9945;46.010;8.946;2023-03-04T10:24:47;97255.69;;;30.55;21.30
19596;BME280;9945;46.010;8.946;2023-03-04T10:27:16;97251.38;;;31.28;20.58
19596;BME280;9945;46.010;8.946;2023-03-04T10:29:45;97256.91;;;30.98;19.83
19596;BME280;9945;46.010;8.946;2023-03-04T10:32:13;97252.53;;;31.56;20.20
19596;BME280;9945;46.010;8.946;2023-03-04T10:34:42;97252.81;;;32.56;18.92
19596;BME280;9945;46.010;8.946;2023-03-04T10:37:09;97247.88;;;33.06;17.75
19596;BME280;9945;46.010;8.946;2023-03-04T10:39:37;97245.41;;;34.17;17.25
19596;BME280;9945;46.010;8.946;2023-03-04T10:42:22;97242.84;;;35.35;15.63
19596;BME280;9945;46.010;8.946;2023-03-04T10:44:52;97238.22;;;35.94;14.93
19596;BME280;9945;46.010;8.946;2023-03-04T10:47:22;97241.84;;;35.17;15.92
19596;BME280;9945;46.010;8.946;2023-03-04T10:49:51;97235.78;;;36.15;15.06
19596;BME280;9945;46.010;8.946;2023-03-04T10:52:25;97229.66;;;37.54;13.81
19596;BME280;9945;46.010;8.946;2023-03-04T10:54:54;97226.78;;;37.93;13.13
19596;BME280;9945;46.010;8.946;2023-03-04T10:57:31;97227.59;;;37.85;13.46
19596;BME280;9945;46.010;8.946;2023-03-04T11:00:00;97229.53;;;39.16;12.03
19596;BME280;9945;46.010;8.946;2023-03-04T11:02:29;97218.59;;;40.11;11.81
19596;BME280;9945;46.010;8.946;2023-03-04T11:05:05;97222.22;;;38.70;12.11
19596;BME280;9945;46.010;8.946;2023-03-04T11:07:38;97217.50;;;38.32;12.10
19596;BME280;9945;46.010;8.946;2023-03-04T11:10:09;97213.34;;;38.26;12.37
19596;BME280;9945;46.010;8.946;2023-03-04T11:12:38;97216.28;;;40.46;11.44
19596;BME280;9945;46.010;8.946;2023-03-04T11:15:16;97217.09;;;41.07;10.67
19596;BME280;9945;46.010;8.946;2023-03-04T11:17:47;97203.84;;;41.77;10.34
19596;BME280;9945;46.010;8.946;2023-03-04T11:20:19;97201.06;;;42.49;9.89
19596;BME280;9945;46.010;8.946;2023-03-04T11:22:51;97194.53;;;43.04;9.52
19596;BME280;9945;46.010;8.946;2023-03-04T11:25:24;97192.78;;;43.31;9.62
19596;BME280;9945;46.010;8.946;2023-03-04T11:27:54;97192.53;;;43.55;9.42
19596;BME280;9945;46.010;8.946;2023-03-04T11:30:37;97184.91;;;44.10;9.08
19596;BME280;9945;46.010;8.946;2023-03-04T11:33:13;97177.31;;;42.13;10.44
19596;BME280;9945;46.010;8.946;2023-03-04T11:35:56;97174.09;;;44.01;9.07
19596;BME280;9945;46.010;8.946;2023-03-04T11:38:29;97175.91;;;44.85;9.01
19596;BME280;9945;46.010;8.946;2023-03-04T11:41:03;97168.78;;;45.10;8.43
19596;BME280;9945;46.010;8.946;2023-03-04T11:43:35;97157.97;;;45.02;8.57
19596;BME280;9945;46.010;8.946;2023-03-04T11:46:35;97148.38;;;43.55;9.18
19596;BME280;9945;46.010;8.946;2023-03-04T11:52:12;97142.81;;;44.39;9.08
19596;BME280;9945;46.010;8.946;2023-03-04T11:54:49;97132.09;;;44.87;8.79
19596;BME280;9945;46.010;8.946;2023-03-04T11:57:29;97122.41;;;39.62;11.30
19596;BME280;9945;46.010;8.946;2023-03-04T12:00:15;97116.13;;;43.05;9.71
19596;BME280;9945;46.010;8.946;2023-03-04T12:02:58;97118.47;;;43.80;9.25
19596;BME280;9945;46.010;8.946;2023-03-04T12:05:38;97111.94;;;44.34;9.06
19596;BME280;9945;46.010;8.946;2023-03-04T12:08:37;97113.28;;;44.21;9.38
19596;BME280;9945;46.010;8.946;2023-03-04T12:11:14;97095.16;;;44.23;9.12
19596;BME280;9945;46.010;8.946;2023-03-04T12:16:56;97093.13;;;44.43;9.40
19596;BME280;9945;46.010;8.946;2023-03-04T12:19:34;97083.63;;;44.18;9.02
19596;BME280;9945;46.010;8.946;2023-03-04T12:22:15;97081.38;;;42.15;10.42
19596;BME280;9945;46.010;8.946;2023-03-04T12:25:02;97074.97;;;44.19;9.58
19596;BME280;9945;46.010;8.946;2023-03-04T12:27:38;97071.91;;;44.77;9.65
19596;BME280;9945;46.010;8.946;2023-03-04T12:30:18;97066.22;;;39.15;12.27
19596;BME280;9945;46.010;8.946;2023-03-04T12:32:50;97052.25;;;41.39;11.35
19596;BME280;9945;46.010;8.946;2023-03-04T12:35:30;97059.44;;;43.88;9.90
19596;BME280;9945;46.010;8.946;2023-03-04T12:38:30;97046.72;;;44.85;9.14
19596;BME280;9945;46.010;8.946;2023-03-04T12:41:13;97045.84;;;45.45;9.14
19596;BME280;9945;46.010;8.946;2023-03-04T12:43:47;97040.03;;;45.16;9.00
19596;BME280;9945;46.010;8.946;2023-03-04T12:46:26;97036.72;;;45.41;9.07
19596;BME280;9945;46.010;8.946;2023-03-04T12:51:55;97030.22;;;45.22;8.74
19596;BME280;9945;46.010;8.946;2023-03-04T12:54:30;97027.38;;;45.15;8.79
19596;BME280;9945;46.010;8.946;2023-03-04T12:57:01;97015.78;;;44.20;9.02
19596;BME280;9945;46.010;8.946;2023-03-04T12:59:36;97017.69;;;44.16;9.22
19596;BME280;9945;46.010;8.946;2023-03-04T13:02:32;97010.41;;;44.04;9.41
19596;BME280;9945;46.010;8.946;2023-03-04T13:05:18;97004.19;;;44.67;9.04
19596;BME280;9945;46.010;8.946;2023-03-04T13:07:56;97000.56;;;41.76;10.61
19596;BME280;9945;46.010;8.946;2023-03-04T13:10:28;96998.06;;;42.18;10.55
19596;BME280;9945;46.010;8.946;2023-03-04T13:12:56;96989.22;;;40.50;10.87
19596;BME280;9945;46.010;8.946;2023-03-04T13:15:30;97000.75;;;43.07;9.99
19596;BME280;9945;46.010;8.946;2023-03-04T13:17:58;96991.97;;;39.41;11.81
19596;BME280;9945;46.010;8.946;2023-03-04T13:20:37;96990.00;;;41.62;10.66
19596;BME280;9945;46.010;8.946;2023-03-04T13:23:23;96988.47;;;43.66;9.69
19596;BME280;9945;46.010;8.946;2023-03-04T13:26:17;96978.53;;;42.07;10.01
19596;BME280;9945;46.010;8.946;2023-03-04T13:28:50;96976.56;;;42.08;10.02
19596;BME280;9945;46.010;8.946;2023-03-04T13:31:23;96979.53;;;41.68;10.54
19596;BME280;9945;46.010;8.946;2023-03-04T13:33:56;96973.53;;;43.25;9.85
19596;BME280;9945;46.010;8.946;2023-03-04T13:36:33;96962.41;;;40.31;11.13
19596;BME280;9945;46.010;8.946;2023-03-04T13:39:02;96956.16;;;40.87;10.94
19596;BME280;9945;46.010;8.946;2023-03-04T13:41:32;96959.06;;;43.31;9.74